createdAt,value
2018-04-24T02:15:56.229Z,52.18
2018-04-24T02:15:56.800Z,52.37
2018-04-24T02:15:57.400Z,51.99
2018-04-24T02:15:58.000Z,52.28
2018-04-24T02:15:58.599Z,52.18
2018-04-24T02:15:59.204Z,52.09
2018-04-24T02:15:59.799Z,52.18
2018-04-24T02:16:00.398Z,52.47
2018-04-24T02:16:53.856Z,51.80
2018-04-24T02:16:54.454Z,52.28
2018-04-24T02:16:55.054Z,51.89
2018-04-24T02:16:55.653Z,51.99
2018-04-24T02:16:56.256Z,51.99
2018-04-24T02:16:56.851Z,51.89
2018-04-24T02:16:57.452Z,52.09
2018-04-24T02:16:58.052Z,51.99
2018-04-24T02:17:52.564Z,51.80
2018-04-24T02:17:53.129Z,51.89
2018-04-24T02:17:53.727Z,51.99
2018-04-24T02:17:54.327Z,51.99
2018-04-24T02:17:54.932Z,51.89
2018-04-24T02:17:55.526Z,51.80
2018-04-24T02:17:56.124Z,51.70
2018-04-24T02:17:56.726Z,51.80
2018-04-24T02:18:51.207Z,51.23
2018-04-24T02:18:51.804Z,51.32
2018-04-24T02:18:52.404Z,51.14
2018-04-24T02:18:53.007Z,51.42
2018-04-24T02:18:53.604Z,51.32
2018-04-24T02:18:54.202Z,51.51
2018-04-24T02:18:54.808Z,51.42
2018-04-24T02:18:55.401Z,51.32
2018-04-24T02:19:49.885Z,50.85
2018-04-24T02:19:50.485Z,50.85
2018-04-24T02:19:51.080Z,50.94
2018-04-24T02:19:51.679Z,50.85
2018-04-24T02:19:52.279Z,50.66
2018-04-24T02:19:52.878Z,50.85
2018-04-24T02:19:53.480Z,50.94
2018-04-24T02:19:54.080Z,51.04
2018-04-24T02:20:47.539Z,51.89
2018-04-24T02:20:48.142Z,51.89
2018-04-24T02:20:48.732Z,52.18
2018-04-24T02:20:49.332Z,51.99
2018-04-24T02:20:49.932Z,51.89
2018-04-24T02:20:50.587Z,51.89
2018-04-24T02:20:51.133Z,51.80
2018-04-24T02:20:51.732Z,52.28
2018-04-24T02:21:46.219Z,51.80
2018-04-24T02:21:46.809Z,52.09
2018-04-24T02:21:47.407Z,51.80
2018-04-24T02:21:48.006Z,51.99
2018-04-24T02:21:48.607Z,51.89
2018-04-24T02:21:49.207Z,51.99
2018-04-24T02:21:49.805Z,51.99
2018-04-24T02:21:50.405Z,51.89
2018-04-24T02:22:43.894Z,49.32
2018-04-24T02:22:44.541Z,49.23
2018-04-24T02:22:45.061Z,49.13
2018-04-24T02:22:45.663Z,48.75
2018-04-24T02:22:46.262Z,48.56
2018-04-24T02:22:46.862Z,48.56
2018-04-24T02:22:47.462Z,48.18
2018-04-24T02:22:48.061Z,47.99
2018-04-24T02:23:41.550Z,50.85
2018-04-24T02:23:42.113Z,50.75
2018-04-24T02:23:42.713Z,50.66
2018-04-24T02:23:43.315Z,51.23
2018-04-24T02:23:43.912Z,51.32
2018-04-24T02:23:44.513Z,51.04
2018-04-24T02:23:45.118Z,51.14
2018-04-24T02:23:45.712Z,50.94
2018-04-24T02:24:39.169Z,52.66
2018-04-24T02:24:39.767Z,52.37
2018-04-24T02:24:40.365Z,52.75
2018-04-24T02:24:40.966Z,53.32
2018-04-24T02:24:41.566Z,52.75
2018-04-24T02:24:42.166Z,52.75
2018-04-24T02:24:42.776Z,52.66
2018-04-24T02:24:43.364Z,52.75
2018-04-24T02:25:36.824Z,53.04
2018-04-24T02:25:37.418Z,53.23
2018-04-24T02:25:38.017Z,53.13
2018-04-24T02:25:38.616Z,53.13
2018-04-24T02:25:39.217Z,53.23
2018-04-24T02:25:39.816Z,53.04
2018-04-24T02:25:40.419Z,53.04
2018-04-24T02:25:41.016Z,53.13
2018-04-24T02:26:34.473Z,53.61
2018-04-24T02:26:35.071Z,53.52
2018-04-24T02:26:35.670Z,53.61
2018-04-24T02:26:36.271Z,53.61
2018-04-24T02:26:36.870Z,53.80
2018-04-24T02:26:37.470Z,53.52
2018-04-24T02:26:38.072Z,53.42
2018-04-24T02:26:38.669Z,53.32
2018-04-24T02:27:32.125Z,53.89
2018-04-24T02:27:32.723Z,53.70
2018-04-24T02:27:33.320Z,53.99
2018-04-24T02:27:33.921Z,53.61
2018-04-24T02:27:34.521Z,53.99
2018-04-24T02:27:35.121Z,54.18
2018-04-24T02:27:35.736Z,54.18
2018-04-24T02:27:36.326Z,54.37
2018-04-24T02:28:29.776Z,53.13
2018-04-24T02:28:30.378Z,53.23
2018-04-24T02:28:30.973Z,53.23
2018-04-24T02:28:31.572Z,53.04
2018-04-24T02:28:32.173Z,53.13
2018-04-24T02:28:32.773Z,52.94
2018-04-24T02:28:33.377Z,53.13
2018-04-24T02:28:33.972Z,53.13
2018-04-24T02:29:27.460Z,53.04
2018-04-24T02:29:28.029Z,53.06
2018-04-24T02:29:28.624Z,53.13
2018-04-24T02:29:29.225Z,53.23
2018-04-24T02:29:29.827Z,53.13
2018-04-24T02:29:30.425Z,53.23
2018-04-24T02:29:31.031Z,53.16
2018-04-24T02:29:31.625Z,53.04
2018-04-24T02:30:25.079Z,55.26
2018-04-24T02:30:25.677Z,55.07
2018-04-24T02:30:26.278Z,55.26
2018-04-24T02:30:26.878Z,55.26
2018-04-24T02:30:27.476Z,55.07
2018-04-24T02:30:28.077Z,54.97
2018-04-24T02:30:28.679Z,55.26
2018-04-24T02:30:29.275Z,54.97
2018-04-24T02:31:22.731Z,55.92
2018-04-24T02:31:23.328Z,55.63
2018-04-24T02:31:23.929Z,56.02
2018-04-24T02:31:24.528Z,56.49
2018-04-24T02:31:25.128Z,56.21
2018-04-24T02:31:25.727Z,56.21
2018-04-24T02:31:26.331Z,56.30
2018-04-24T02:31:26.927Z,56.11
2018-04-24T02:32:20.384Z,56.21
2018-04-24T02:32:20.981Z,56.21
2018-04-24T02:32:21.580Z,56.11
2018-04-24T02:32:22.187Z,56.02
2018-04-24T02:32:22.779Z,56.11
2018-04-24T02:32:23.380Z,56.40
2018-04-24T02:32:23.985Z,56.68
2018-04-24T02:32:24.578Z,56.49
2018-04-24T02:33:18.044Z,56.11
2018-04-24T02:33:18.632Z,56.21
2018-04-24T02:33:19.232Z,56.11
2018-04-24T02:33:19.833Z,56.30
2018-04-24T02:33:20.431Z,56.78
2018-04-24T02:33:21.031Z,56.68
2018-04-24T02:33:21.632Z,56.49
2018-04-24T02:33:22.232Z,56.49
2018-04-24T02:34:15.687Z,56.30
2018-04-24T02:34:16.284Z,56.21
2018-04-24T02:34:16.887Z,56.30
2018-04-24T02:34:17.482Z,56.21
2018-04-24T02:34:18.085Z,56.21
2018-04-24T02:34:18.682Z,56.21
2018-04-24T02:34:19.284Z,56.21
2018-04-24T02:34:19.883Z,56.11
2018-04-24T02:35:13.365Z,56.30
2018-04-24T02:35:13.935Z,56.21
2018-04-24T02:35:14.536Z,56.30
2018-04-24T02:35:15.136Z,56.21
2018-04-24T02:35:15.736Z,56.30
2018-04-24T02:35:16.335Z,56.30
2018-04-24T02:35:16.936Z,56.40
2018-04-24T02:35:17.535Z,56.59
2018-04-24T02:36:10.993Z,56.49
2018-04-24T02:36:11.589Z,56.21
2018-04-24T02:36:12.187Z,56.30
2018-04-24T02:36:12.791Z,56.59
2018-04-24T02:36:13.391Z,55.54
2018-04-24T02:36:13.987Z,55.63
2018-04-24T02:36:14.587Z,55.54
2018-04-24T02:36:15.190Z,55.92
2018-04-24T02:37:08.643Z,56.59
2018-04-24T02:37:09.240Z,56.59
2018-04-24T02:37:09.840Z,56.49
2018-04-24T02:37:10.439Z,56.49
2018-04-24T02:37:11.041Z,56.78
2018-04-24T02:37:11.637Z,56.49
2018-04-24T02:37:12.245Z,56.30
2018-04-24T02:37:12.843Z,56.40
2018-04-24T02:38:06.294Z,56.87
2018-04-24T02:38:06.890Z,56.87
2018-04-24T02:38:07.491Z,56.78
2018-04-24T02:38:08.091Z,56.87
2018-04-24T02:38:08.690Z,56.87
2018-04-24T02:38:09.289Z,56.87
2018-04-24T02:38:09.892Z,56.78
2018-04-24T02:38:10.491Z,56.87
2018-04-24T02:39:03.946Z,55.73
2018-04-24T02:39:04.546Z,55.83
2018-04-24T02:39:05.145Z,56.11
2018-04-24T02:39:05.743Z,56.02
2018-04-24T02:39:06.342Z,56.40
2018-04-24T02:39:06.942Z,56.40
2018-04-24T02:39:07.544Z,56.11
2018-04-24T02:39:08.145Z,56.21
2018-04-24T02:40:01.631Z,59.16
2018-04-24T02:40:02.204Z,58.87
2018-04-24T02:40:02.798Z,59.06
2018-04-24T02:40:03.395Z,58.97
2018-04-24T02:40:03.994Z,58.97
2018-04-24T02:40:04.594Z,58.69
2018-04-24T02:40:05.195Z,58.87
2018-04-24T02:40:05.794Z,58.97
2018-04-24T02:41:00.274Z,60.78
2018-04-24T02:41:00.870Z,60.78
2018-04-24T02:41:01.470Z,60.78
2018-04-24T02:41:02.070Z,60.81
2018-04-24T02:41:02.669Z,60.69
2018-04-24T02:41:03.268Z,60.78
2018-04-24T02:41:03.874Z,60.78
2018-04-24T02:41:04.469Z,60.69
2018-04-24T02:41:58.949Z,59.06
2018-04-24T02:41:59.545Z,58.78
2018-04-24T02:42:00.145Z,58.78
2018-04-24T02:42:00.744Z,58.69
2018-04-24T02:42:01.344Z,58.78
2018-04-24T02:42:01.950Z,59.00
2018-04-24T02:42:02.549Z,58.87
2018-04-24T02:42:03.144Z,58.97
2018-04-24T02:42:56.599Z,59.45
2018-04-24T02:42:57.198Z,59.54
2018-04-24T02:42:57.810Z,59.74
2018-04-24T02:42:58.399Z,59.74
2018-04-24T02:42:59.009Z,59.16
2018-04-24T02:42:59.597Z,58.69
2018-04-24T02:43:00.197Z,58.43
2018-04-24T02:43:00.799Z,58.14
2018-04-24T02:43:54.253Z,59.67
2018-04-24T02:43:54.849Z,59.38
2018-04-24T02:43:55.493Z,59.57
2018-04-24T02:43:56.057Z,59.54
2018-04-24T02:43:56.657Z,59.45
2018-04-24T02:43:57.251Z,59.45
2018-04-24T02:43:57.850Z,59.57
2018-04-24T02:43:58.448Z,59.57
2018-04-24T02:44:51.905Z,60.62
2018-04-24T02:44:52.504Z,60.62
2018-04-24T02:44:53.102Z,61.29
2018-04-24T02:44:53.701Z,61.00
2018-04-24T02:44:54.301Z,60.97
2018-04-24T02:44:54.901Z,61.00
2018-04-24T02:44:55.501Z,60.88
2018-04-24T02:44:56.099Z,61.25
2018-04-24T02:45:49.587Z,61.57
2018-04-24T02:45:50.154Z,61.96
2018-04-24T02:45:50.756Z,61.67
2018-04-24T02:45:51.354Z,62.15
2018-04-24T02:45:51.953Z,61.86
2018-04-24T02:45:52.552Z,61.96
2018-04-24T02:45:53.153Z,62.15
2018-04-24T02:45:53.752Z,61.96
2018-04-24T02:46:48.231Z,62.05
2018-04-24T02:46:48.826Z,62.15
2018-04-24T02:46:49.434Z,62.15
2018-04-24T02:46:50.025Z,61.48
2018-04-24T02:46:50.634Z,61.29
2018-04-24T02:46:51.226Z,61.38
2018-04-24T02:46:51.831Z,61.19
2018-04-24T02:46:52.424Z,61.19
2018-04-24T02:47:45.885Z,59.95
2018-04-24T02:47:46.478Z,59.86
2018-04-24T02:47:47.078Z,59.95
2018-04-24T02:47:47.679Z,59.86
2018-04-24T02:47:48.280Z,59.86
2018-04-24T02:47:48.878Z,59.95
2018-04-24T02:47:49.478Z,59.76
2018-04-24T02:47:50.084Z,59.95
2018-04-24T02:48:44.558Z,60.81
2018-04-24T02:48:45.155Z,60.72
2018-04-24T02:48:45.753Z,60.72
2018-04-24T02:48:46.355Z,60.81
2018-04-24T02:48:46.955Z,60.62
2018-04-24T02:48:47.554Z,60.62
2018-04-24T02:48:48.154Z,60.52
2018-04-24T02:48:48.753Z,60.81
2018-04-24T02:49:42.211Z,59.48
2018-04-24T02:49:42.807Z,59.67
2018-04-24T02:49:43.408Z,59.57
2018-04-24T02:49:44.009Z,59.57
2018-04-24T02:49:44.610Z,59.48
2018-04-24T02:49:45.211Z,59.48
2018-04-24T02:49:45.806Z,59.76
2018-04-24T02:49:46.406Z,59.38
2018-04-24T02:50:40.895Z,60.81
2018-04-24T02:50:41.486Z,60.81
2018-04-24T02:50:42.083Z,60.81
2018-04-24T02:50:42.684Z,60.81
2018-04-24T02:50:43.284Z,60.62
2018-04-24T02:50:43.881Z,60.81
2018-04-24T02:50:44.484Z,60.72
2018-04-24T02:50:45.080Z,60.62
2018-04-24T02:51:38.566Z,59.95
2018-04-24T02:51:39.136Z,59.86
2018-04-24T02:51:39.739Z,60.05
2018-04-24T02:51:40.336Z,60.05
2018-04-24T02:51:40.937Z,60.14
2018-04-24T02:51:41.535Z,60.05
2018-04-24T02:51:42.138Z,60.14
2018-04-24T02:51:42.731Z,60.05
2018-04-24T02:52:36.190Z,60.14
2018-04-24T02:52:36.787Z,59.67
2018-04-24T02:52:37.385Z,59.86
2018-04-24T02:52:37.995Z,59.76
2018-04-24T02:52:38.586Z,59.76
2018-04-24T02:52:39.185Z,59.86
2018-04-24T02:52:39.785Z,59.38
2018-04-24T02:52:40.384Z,59.28
2018-04-24T02:53:34.864Z,61.29
2018-04-24T02:53:35.463Z,61.29
2018-04-24T02:53:36.060Z,60.62
2018-04-24T02:53:36.661Z,60.62
2018-04-24T02:53:37.265Z,60.91
2018-04-24T02:53:37.860Z,60.81
2018-04-24T02:53:38.461Z,60.62
2018-04-24T02:53:39.059Z,61.00
2018-04-24T02:54:32.519Z,59.00
2018-04-24T02:54:33.113Z,58.81
2018-04-24T02:54:33.716Z,59.00
2018-04-24T02:54:34.312Z,58.81
2018-04-24T02:54:34.914Z,58.72
2018-04-24T02:54:35.512Z,58.81
2018-04-24T02:54:36.112Z,59.09
2018-04-24T02:54:36.719Z,58.91
2018-04-24T02:55:31.191Z,61.10
2018-04-24T02:55:31.788Z,61.10
2018-04-24T02:55:32.393Z,61.38
2018-04-24T02:55:32.989Z,61.19
2018-04-24T02:55:33.589Z,61.29
2018-04-24T02:55:34.187Z,61.29
2018-04-24T02:55:34.788Z,61.38
2018-04-24T02:55:35.390Z,61.29
2018-04-24T02:56:29.901Z,62.52
2018-04-24T02:56:30.464Z,62.52
2018-04-24T02:56:31.069Z,62.81
2018-04-24T02:56:31.664Z,62.81
2018-04-24T02:56:32.265Z,62.81
2018-04-24T02:56:32.865Z,63.00
2018-04-24T02:56:33.477Z,63.00
2018-04-24T02:56:34.063Z,63.00
2018-04-24T02:57:28.544Z,61.67
2018-04-24T02:57:29.141Z,61.67
2018-04-24T02:57:29.828Z,61.96
2018-04-24T02:57:30.340Z,62.24
2018-04-24T02:57:30.940Z,62.15
2018-04-24T02:57:31.539Z,62.15
2018-04-24T02:57:32.139Z,62.24
2018-04-24T02:57:32.738Z,61.86
2018-04-24T02:58:27.221Z,62.15
2018-04-24T02:58:27.819Z,61.67
2018-04-24T02:58:28.415Z,62.15
2018-04-24T02:58:29.019Z,61.67
2018-04-24T02:58:29.614Z,61.96
2018-04-24T02:58:30.216Z,62.15
2018-04-24T02:58:30.816Z,62.15
2018-04-24T02:58:31.415Z,62.15
2018-04-24T02:59:25.895Z,60.72
2018-04-24T02:59:26.491Z,60.91
2018-04-24T02:59:27.090Z,60.72
2018-04-24T02:59:27.691Z,60.72
2018-04-24T02:59:28.290Z,60.72
2018-04-24T02:59:28.890Z,60.62
2018-04-24T02:59:29.491Z,60.91
2018-04-24T02:59:30.091Z,61.10
2018-04-24T03:00:23.636Z,62.34
2018-04-24T03:00:24.148Z,62.52
2018-04-24T03:00:24.744Z,62.24
2018-04-24T03:00:25.342Z,62.24
2018-04-24T03:00:25.945Z,62.05
2018-04-24T03:00:26.544Z,62.15
2018-04-24T03:00:27.143Z,62.34
2018-04-24T03:00:27.744Z,62.34
2018-04-24T03:01:21.199Z,62.05
2018-04-24T03:01:21.862Z,62.05
2018-04-24T03:01:22.396Z,62.15
2018-04-24T03:01:22.995Z,62.24
2018-04-24T03:01:23.595Z,62.52
2018-04-24T03:01:24.195Z,62.24
2018-04-24T03:01:24.797Z,62.43
2018-04-24T03:01:25.394Z,62.24
2018-04-24T03:02:19.899Z,60.81
2018-04-24T03:02:20.469Z,60.81
2018-04-24T03:02:21.073Z,61.00
2018-04-24T03:02:21.669Z,60.81
2018-04-24T03:02:22.269Z,60.62
2018-04-24T03:02:22.869Z,60.72
2018-04-24T03:02:23.470Z,60.52
2018-04-24T03:02:24.068Z,60.24
2018-04-24T03:03:17.528Z,62.24
2018-04-24T03:03:18.130Z,62.24
2018-04-24T03:03:18.728Z,61.96
2018-04-24T03:03:19.322Z,62.05
2018-04-24T03:03:19.932Z,61.96
2018-04-24T03:03:20.577Z,62.05
2018-04-24T03:03:21.127Z,62.05
2018-04-24T03:03:21.722Z,62.05
2018-04-24T03:04:16.201Z,63.29
2018-04-24T03:04:16.796Z,63.29
2018-04-24T03:04:17.397Z,63.39
2018-04-24T03:04:17.997Z,63.29
2018-04-24T03:04:18.596Z,63.29
2018-04-24T03:04:19.195Z,62.91
2018-04-24T03:04:19.797Z,63.48
2018-04-24T03:04:20.395Z,63.48
2018-04-24T03:05:26.551Z,62.52
2018-04-24T03:05:27.146Z,62.72
2018-04-24T03:05:27.745Z,62.72
2018-04-24T03:05:28.354Z,62.72
2018-04-24T03:05:28.947Z,62.34
2018-04-24T03:05:29.547Z,62.43
2018-04-24T03:05:30.153Z,62.43
2018-04-24T03:05:30.747Z,62.72
2018-04-24T03:06:24.202Z,63.20
2018-04-24T03:06:24.801Z,63.48
2018-04-24T03:06:25.400Z,62.72
2018-04-24T03:06:25.998Z,62.72
2018-04-24T03:06:26.603Z,62.81
2018-04-24T03:06:27.199Z,62.52
2018-04-24T03:06:27.800Z,62.81
2018-04-24T03:06:28.397Z,63.00
2018-04-24T03:07:22.910Z,63.00
2018-04-24T03:07:23.474Z,62.91
2018-04-24T03:07:24.074Z,62.91
2018-04-24T03:07:24.673Z,63.10
2018-04-24T03:07:25.274Z,62.91
2018-04-24T03:07:25.874Z,62.72
2018-04-24T03:07:26.473Z,63.00
2018-04-24T03:07:27.075Z,62.81
2018-04-24T03:08:21.552Z,62.72
2018-04-24T03:08:22.151Z,62.91
2018-04-24T03:08:22.756Z,63.48
2018-04-24T03:08:23.351Z,63.39
2018-04-24T03:08:23.949Z,63.57
2018-04-24T03:08:24.551Z,63.10
2018-04-24T03:08:25.150Z,63.29
2018-04-24T03:08:25.750Z,63.48
2018-04-24T03:09:19.308Z,62.72
2018-04-24T03:09:19.906Z,62.91
2018-04-24T03:09:20.504Z,63.39
2018-04-24T03:09:21.104Z,63.29
2018-04-24T03:09:21.704Z,63.29
2018-04-24T03:09:22.304Z,63.00
2018-04-24T03:09:22.903Z,63.29
2018-04-24T03:09:23.503Z,63.20
2018-04-24T03:10:16.960Z,64.62
2018-04-24T03:10:17.557Z,64.34
2018-04-24T03:10:18.155Z,64.43
2018-04-24T03:10:18.756Z,64.62
2018-04-24T03:10:19.356Z,64.43
2018-04-24T03:10:19.956Z,64.43
2018-04-24T03:10:20.555Z,64.62
2018-04-24T03:10:21.156Z,64.34
2018-04-24T03:11:14.613Z,64.24
2018-04-24T03:11:15.207Z,64.24
2018-04-24T03:11:15.807Z,64.34
2018-04-24T03:11:16.407Z,64.34
2018-04-24T03:11:17.007Z,64.43
2018-04-24T03:11:17.607Z,64.53
2018-04-24T03:11:18.206Z,64.43
2018-04-24T03:11:18.806Z,64.62
2018-04-24T03:12:12.266Z,64.43
2018-04-24T03:12:12.860Z,64.43
2018-04-24T03:29:12.615Z,63.39
2018-04-24T03:29:13.233Z,63.48
2018-04-24T03:29:13.776Z,63.67
2018-04-24T03:29:14.376Z,63.67
2018-04-24T03:29:14.976Z,63.48
2018-04-24T03:29:15.577Z,63.39
2018-04-24T03:29:16.175Z,63.48
2018-04-24T03:29:16.775Z,63.39
2018-04-24T03:30:11.263Z,63.10
2018-04-24T03:30:11.858Z,62.81
2018-04-24T03:30:12.453Z,63.00
2018-04-24T03:30:13.051Z,62.81
2018-04-24T03:30:13.651Z,62.81
2018-04-24T03:30:14.251Z,63.00
2018-04-24T03:30:14.851Z,63.00
2018-04-24T03:30:15.450Z,63.00
2018-04-24T03:31:08.910Z,63.67
2018-04-24T03:31:09.609Z,63.67
2018-04-24T03:31:10.106Z,63.48
2018-04-24T03:31:10.707Z,63.48
2018-04-24T03:31:11.306Z,63.48
2018-04-24T03:31:11.907Z,63.39
2018-04-24T03:31:12.509Z,63.48
2018-04-24T03:31:13.105Z,63.48
2018-04-24T03:32:06.561Z,63.00
2018-04-24T03:32:07.158Z,63.29
2018-04-24T03:32:07.757Z,63.29
2018-04-24T03:32:08.359Z,63.00
2018-04-24T03:32:08.958Z,63.13
2018-04-24T03:32:09.557Z,63.20
2018-04-24T03:32:10.166Z,63.29
2018-04-24T03:32:10.756Z,63.10
2018-04-24T03:33:04.213Z,64.43
2018-04-24T03:33:04.809Z,64.43
2018-04-24T03:33:05.411Z,64.34
2018-04-24T03:33:06.011Z,64.43
2018-04-24T03:33:06.610Z,64.34
2018-04-24T03:33:07.210Z,64.62
2018-04-24T03:33:07.813Z,64.72
2018-04-24T03:33:08.410Z,64.72
2018-04-24T03:34:01.866Z,64.15
2018-04-24T03:34:02.462Z,64.15
2018-04-24T03:34:03.064Z,63.96
2018-04-24T03:34:03.661Z,64.05
2018-04-24T03:34:04.261Z,64.15
2018-04-24T03:34:04.861Z,64.34
2018-04-24T03:34:05.462Z,64.24
2018-04-24T03:34:06.060Z,64.24
2018-04-24T03:34:59.545Z,62.24
2018-04-24T03:35:00.119Z,62.15
2018-04-24T03:35:00.714Z,61.96
2018-04-24T03:35:01.314Z,62.15
2018-04-24T03:35:01.915Z,62.24
2018-04-24T03:35:02.514Z,61.96
2018-04-24T03:35:03.113Z,62.34
2018-04-24T03:35:03.714Z,62.24
2018-04-24T03:35:57.170Z,63.20
2018-04-24T03:35:57.769Z,63.20
2018-04-24T03:35:58.365Z,63.10
2018-04-24T03:35:58.967Z,63.10
2018-04-24T03:35:59.567Z,63.29
2018-04-24T03:36:00.169Z,63.00
2018-04-24T03:36:00.764Z,63.29
2018-04-24T03:36:01.405Z,63.00
2018-04-24T03:36:54.821Z,65.20
2018-04-24T03:36:55.419Z,65.00
2018-04-24T03:36:56.017Z,65.00
2018-04-24T03:36:56.618Z,64.75
2018-04-24T03:36:57.309Z,64.72
2018-04-24T03:36:57.817Z,64.91
2018-04-24T03:36:58.417Z,64.62
2018-04-24T03:36:59.017Z,64.62
2018-04-24T03:37:52.474Z,64.43
2018-04-24T03:37:53.070Z,63.96
2018-04-24T03:37:53.672Z,64.24
2018-04-24T03:37:54.270Z,64.05
2018-04-24T03:37:54.868Z,64.05
2018-04-24T03:37:55.471Z,64.05
2018-04-24T03:37:56.069Z,64.24
2018-04-24T03:37:56.670Z,63.96
2018-04-24T03:38:50.126Z,62.91
2018-04-24T03:38:50.722Z,62.72
2018-04-24T03:38:51.321Z,63.10
2018-04-24T03:38:51.921Z,63.04
2018-04-24T03:38:52.522Z,62.91
2018-04-24T03:38:53.121Z,63.00
2018-04-24T03:38:53.720Z,63.00
2018-04-24T03:38:54.321Z,63.00
2018-04-24T03:39:47.808Z,65.00
2018-04-24T03:39:48.373Z,65.20
2018-04-24T03:39:48.973Z,65.20
2018-04-24T03:39:49.574Z,65.10
2018-04-24T03:39:50.172Z,65.23
2018-04-24T03:39:50.774Z,65.10
2018-04-24T03:39:51.374Z,65.23
2018-04-24T03:39:51.974Z,65.13
2018-04-24T03:40:45.429Z,64.47
2018-04-24T03:40:46.026Z,64.47
2018-04-24T03:40:46.628Z,64.28
2018-04-24T03:40:47.226Z,64.37
2018-04-24T03:40:47.824Z,64.65
2018-04-24T03:40:48.430Z,64.75
2018-04-24T03:40:49.024Z,64.85
2018-04-24T03:40:49.624Z,64.43
2018-04-24T03:41:43.081Z,66.47
2018-04-24T03:41:43.677Z,66.28
2018-04-24T03:41:44.277Z,66.28
2018-04-24T03:41:44.876Z,66.28
2018-04-24T03:41:45.475Z,66.28
2018-04-24T03:41:46.077Z,66.18
2018-04-24T03:41:46.676Z,66.47
2018-04-24T03:41:47.275Z,66.63
2018-04-24T03:42:40.734Z,66.85
2018-04-24T03:42:41.330Z,67.14
2018-04-24T03:42:41.929Z,67.14
2018-04-24T03:42:42.534Z,66.85
2018-04-24T03:42:43.129Z,67.04
2018-04-24T03:42:43.730Z,67.42
2018-04-24T03:42:44.330Z,67.52
2018-04-24T03:42:44.929Z,67.61
2018-04-24T03:43:38.385Z,66.38
2018-04-24T03:43:38.983Z,66.38
2018-04-24T03:43:39.581Z,66.38
2018-04-24T03:43:40.181Z,66.38
2018-04-24T03:43:40.780Z,66.18
2018-04-24T03:43:41.381Z,66.66
2018-04-24T03:43:41.984Z,66.38
2018-04-24T03:43:42.581Z,66.66
2018-04-24T03:44:36.036Z,67.42
2018-04-24T03:44:36.632Z,67.42
2018-04-24T03:44:37.233Z,67.14
2018-04-24T03:44:37.833Z,67.33
2018-04-24T03:44:38.432Z,67.71
2018-04-24T03:44:39.040Z,67.52
2018-04-24T03:44:39.634Z,67.42
2018-04-24T03:44:40.232Z,67.71
2018-04-24T03:45:33.713Z,68.09
2018-04-24T03:45:34.284Z,68.38
2018-04-24T03:45:34.884Z,68.38
2018-04-24T03:45:35.484Z,68.38
2018-04-24T03:45:36.083Z,68.38
2018-04-24T03:45:36.686Z,68.18
2018-04-24T03:45:37.285Z,68.38
2018-04-24T03:45:37.883Z,68.38
2018-04-24T03:46:31.343Z,66.09
2018-04-24T03:46:31.936Z,66.28
2018-04-24T03:46:32.536Z,66.47
2018-04-24T03:46:33.137Z,66.75
2018-04-24T03:46:33.736Z,66.66
2018-04-24T03:46:34.336Z,66.66
2018-04-24T03:46:34.938Z,66.47
2018-04-24T03:46:35.536Z,66.75
2018-04-24T03:47:30.016Z,67.80
2018-04-24T03:47:30.612Z,67.80
2018-04-24T03:47:31.212Z,67.52
2018-04-24T03:47:31.812Z,67.52
2018-04-24T03:47:32.411Z,67.80
2018-04-24T03:47:33.011Z,67.71
2018-04-24T03:47:33.611Z,67.71
2018-04-24T03:47:34.211Z,67.61
2018-04-24T03:48:27.667Z,68.47
2018-04-24T03:48:28.262Z,67.52
2018-04-24T03:48:28.863Z,67.99
2018-04-24T03:48:29.463Z,67.42
2018-04-24T03:48:30.063Z,66.66
2018-04-24T03:48:30.664Z,66.85
2018-04-24T03:48:31.264Z,66.94
2018-04-24T03:48:31.862Z,66.18
2018-04-24T03:49:25.320Z,66.56
2018-04-24T03:49:25.916Z,66.75
2018-04-24T03:49:26.514Z,66.75
2018-04-24T03:49:27.115Z,66.75
2018-04-24T03:49:27.718Z,66.66
2018-04-24T03:49:28.315Z,66.66
2018-04-24T03:49:28.915Z,66.47
2018-04-24T03:49:29.519Z,65.99
2018-04-24T03:50:23.093Z,67.42
2018-04-24T03:50:23.599Z,67.42
2018-04-24T03:50:24.196Z,67.90
2018-04-24T03:50:24.796Z,67.52
2018-04-24T03:50:25.396Z,67.90
2018-04-24T03:50:25.997Z,67.71
2018-04-24T03:50:26.595Z,68.09
2018-04-24T03:50:27.196Z,67.71
2018-04-24T03:51:20.724Z,68.38
2018-04-24T03:51:21.324Z,68.47
2018-04-24T03:51:21.923Z,68.47
2018-04-24T03:51:22.522Z,68.38
2018-04-24T03:51:23.124Z,68.57
2018-04-24T03:51:23.723Z,68.66
2018-04-24T03:51:24.321Z,68.38
2018-04-24T03:51:24.921Z,68.38
2018-04-24T03:52:18.376Z,70.09
2018-04-24T03:52:18.974Z,70.19
2018-04-24T03:52:19.576Z,70.09
2018-04-24T03:52:20.174Z,70.19
2018-04-24T03:52:20.781Z,70.38
2018-04-24T03:52:21.373Z,70.19
2018-04-24T03:52:21.974Z,70.86
2018-04-24T03:52:22.571Z,70.28
2018-04-24T03:53:16.035Z,69.14
2018-04-24T03:53:16.624Z,69.23
2018-04-24T03:53:17.225Z,69.23
2018-04-24T03:53:17.823Z,69.33
2018-04-24T03:53:18.424Z,69.23
2018-04-24T03:53:19.024Z,69.71
2018-04-24T03:53:19.625Z,69.71
2018-04-24T03:53:20.227Z,69.90
2018-04-24T03:54:13.679Z,69.81
2018-04-24T03:54:14.276Z,70.09
2018-04-24T03:54:14.880Z,69.81
2018-04-24T03:54:15.479Z,69.90
2018-04-24T03:54:16.077Z,69.62
2018-04-24T03:54:16.676Z,70.09
2018-04-24T03:54:17.276Z,70.09
2018-04-24T03:54:17.878Z,69.81
2018-04-24T03:55:11.330Z,70.47
2018-04-24T03:55:11.928Z,70.00
2018-04-24T03:55:12.528Z,70.28
2018-04-24T03:55:13.130Z,69.90
2018-04-24T03:55:13.728Z,70.28
2018-04-24T03:55:14.327Z,70.28
2018-04-24T03:55:14.927Z,70.28
2018-04-24T03:55:15.527Z,70.38
2018-04-24T03:56:09.009Z,70.86
2018-04-24T03:56:09.581Z,70.76
2018-04-24T03:56:10.181Z,70.76
2018-04-24T03:56:10.780Z,70.86
2018-04-24T03:56:11.380Z,70.57
2018-04-24T03:56:11.980Z,70.38
2018-04-24T03:56:12.580Z,70.38
2018-04-24T03:56:13.179Z,70.19
2018-04-24T03:57:06.634Z,70.47
2018-04-24T03:57:07.271Z,70.09
2018-04-24T03:57:07.855Z,70.09
2018-04-24T03:57:08.457Z,70.00
2018-04-24T03:57:09.107Z,70.09
2018-04-24T03:57:09.666Z,70.19
2018-04-24T03:57:10.264Z,70.09
2018-04-24T03:57:10.836Z,70.09
2018-04-24T03:58:04.288Z,71.14
2018-04-24T03:58:04.884Z,71.14
2018-04-24T03:58:05.489Z,71.14
2018-04-24T03:58:06.083Z,72.00
2018-04-24T03:58:06.687Z,71.43
2018-04-24T03:58:07.291Z,72.09
2018-04-24T03:58:07.882Z,72.00
2018-04-24T03:58:08.483Z,71.72
2018-04-24T03:59:02.058Z,71.14
2018-04-24T03:59:02.565Z,71.14
2018-04-24T03:59:03.169Z,71.23
2018-04-24T03:59:03.765Z,71.04
2018-04-24T03:59:04.365Z,71.23
2018-04-24T03:59:04.962Z,71.23
2018-04-24T03:59:05.561Z,71.04
2018-04-24T03:59:06.165Z,70.67
2018-04-24T03:59:59.721Z,69.43
2018-04-24T04:00:00.291Z,69.33
2018-04-24T04:00:00.898Z,69.33
2018-04-24T04:00:01.491Z,69.23
2018-04-24T04:00:02.100Z,69.62
2018-04-24T04:00:02.691Z,69.62
2018-04-24T04:00:03.290Z,69.52
2018-04-24T04:00:03.892Z,69.52
2018-04-24T04:00:58.370Z,71.72
2018-04-24T04:00:58.973Z,71.52
2018-04-24T04:00:59.565Z,71.43
2018-04-24T04:01:00.165Z,71.62
2018-04-24T04:01:00.768Z,71.52
2018-04-24T04:01:01.366Z,71.52
2018-04-24T04:01:01.966Z,71.43
2018-04-24T04:01:02.565Z,71.72
2018-04-24T04:01:57.049Z,70.86
2018-04-24T04:01:57.644Z,71.04
2018-04-24T04:01:58.245Z,70.86
2018-04-24T04:01:58.842Z,70.95
2018-04-24T04:01:59.445Z,70.95
2018-04-24T04:02:00.043Z,70.86
2018-04-24T04:02:00.641Z,70.95
2018-04-24T04:02:01.241Z,70.76
2018-04-24T04:02:54.725Z,70.19
2018-04-24T04:02:55.295Z,70.28
2018-04-24T04:02:55.896Z,70.19
2018-04-24T04:02:56.573Z,70.28
2018-04-24T04:02:57.096Z,70.28
2018-04-24T04:02:57.694Z,70.19
2018-04-24T04:02:58.298Z,70.47
2018-04-24T04:02:58.896Z,70.38
2018-04-24T04:03:52.377Z,71.43
2018-04-24T04:03:52.948Z,71.23
2018-04-24T04:03:53.548Z,71.81
2018-04-24T04:03:54.147Z,72.00
2018-04-24T04:03:54.752Z,71.72
2018-04-24T04:03:55.346Z,72.00
2018-04-24T04:03:55.947Z,71.81
2018-04-24T04:03:56.545Z,71.52
2018-04-24T04:04:51.051Z,72.09
2018-04-24T04:04:51.622Z,72.28
2018-04-24T04:04:52.222Z,72.19
2018-04-24T04:04:52.825Z,72.19
2018-04-24T04:04:53.423Z,72.19
2018-04-24T04:04:54.023Z,72.19
2018-04-24T04:04:54.622Z,72.00
2018-04-24T04:04:55.220Z,71.72
2018-04-24T04:05:49.702Z,72.76
2018-04-24T04:05:50.297Z,72.96
2018-04-24T04:05:50.896Z,73.14